sensor_id;sensor_type;location;lat;lon;timestamp;P1;durP1;ratioP1;P2;durP2;ratioP2
9563;SDS011;4820;50.870;4.702;2023-07-31T00:00:11;13.85;;;5.68;;
9563;SDS011;4820;50.870;4.702;2023-07-31T00:02:37;12.40;;;5.40;;
9563;SDS011;4820;50.870;4.702;2023-07-31T00:05:03;10.50;;;5.15;;
9563;SDS011;4820;50.870;4.702;2023-07-31T00:07:29;10.10;;;4.88;;
9563;SDS011;4820;50.870;4.702;2023-07-31T00:09:55;9.27;;;5.00;;
9563;SDS011;4820;50.870;4.702;2023-07-31T00:12:21;9.32;;;5.07;;
9563;SDS011;4820;50.870;4.702;2023-07-31T00:14:47;11.52;;;5.25;;
9563;SDS011;4820;50.870;4.702;2023-07-31T00:17:13;12.50;;;5.28;;
9563;SDS011;4820;50.870;4.702;2023-07-31T00:19:39;13.02;;;6.32;;
9563;SDS011;4820;50.870;4.702;2023-07-31T00:22:05;14.10;;;5.68;;
9563;SDS011;4820;50.870;4.702;2023-07-31T00:24:30;12.38;;;5.30;;
9563;SDS011;4820;50.870;4.702;2023-07-31T00:26:56;13.13;;;5.57;;
9563;SDS011;4820;50.870;4.702;2023-07-31T00:29:22;16.75;;;5.85;;
9563;SDS011;4820;50.870;4.702;2023-07-31T00:31:47;11.98;;;5.22;;
9563;SDS011;4820;50.870;4.702;2023-07-31T00:34:13;11.13;;;5.32;;
9563;SDS011;4820;50.870;4.702;2023-07-31T00:36:38;11.30;;;6.03;;
9563;SDS011;4820;50.870;4.702;2023-07-31T00:39:04;11.57;;;5.13;;
9563;SDS011;4820;50.870;4.702;2023-07-31T00:41:31;10.65;;;4.43;;
9563;SDS011;4820;50.870;4.702;2023-07-31T00:43:58;11.55;;;5.35;;
9563;SDS011;4820;50.870;4.702;2023-07-31T00:46:24;11.20;;;5.45;;
9563;SDS011;4820;50.870;4.702;2023-07-31T00:48:50;10.20;;;5.03;;
9563;SDS011;4820;50.870;4.702;2023-07-31T00:51:15;12.77;;;5.45;;
9563;SDS011;4820;50.870;4.702;2023-07-31T00:53:41;11.32;;;5.32;;
9563;SDS011;4820;50.870;4.702;2023-07-31T00:56:09;10.63;;;4.72;;
9563;SDS011;4820;50.870;4.702;2023-07-31T00:58:35;11.65;;;5.50;;
9563;SDS011;4820;50.870;4.702;2023-07-31T01:01:01;10.02;;;5.10;;
9563;SDS011;4820;50.870;4.702;2023-07-31T01:03:27;9.65;;;5.10;;
9563;SDS011;4820;50.870;4.702;2023-07-31T01:06:09;11.25;;;4.88;;
9563;SDS011;4820;50.870;4.702;2023-07-31T01:11:51;8.93;;;4.65;;
9563;SDS011;4820;50.870;4.702;2023-07-31T01:14:19;12.55;;;5.35;;
9563;SDS011;4820;50.870;4.702;2023-07-31T01:16:45;12.85;;;5.28;;
9563;SDS011;4820;50.870;4.702;2023-07-31T01:19:11;11.05;;;5.05;;
9563;SDS011;4820;50.870;4.702;2023-07-31T01:26:56;12.18;;;4.82;;
9563;SDS011;4820;50.870;4.702;2023-07-31T01:29:28;11.65;;;5.47;;
9563;SDS011;4820;50.870;4.702;2023-07-31T01:32:05;10.68;;;4.85;;
9563;SDS011;4820;50.870;4.702;2023-07-31T01:34:32;11.48;;;5.18;;
9563;SDS011;4820;50.870;4.702;2023-07-31T01:36:59;9.30;;;5.00;;
9563;SDS011;4820;50.870;4.702;2023-07-31T01:39:25;9.38;;;5.28;;
9563;SDS011;4820;50.870;4.702;2023-07-31T01:41:51;10.82;;;5.20;;
9563;SDS011;4820;50.870;4.702;2023-07-31T01:44:16;12.43;;;5.60;;
9563;SDS011;4820;50.870;4.702;2023-07-31T01:46:42;9.15;;;5.00;;
9563;SDS011;4820;50.870;4.702;2023-07-31T01:49:07;12.75;;;5.35;;
9563;SDS011;4820;50.870;4.702;2023-07-31T01:51:33;9.57;;;5.05;;
9563;SDS011;4820;50.870;4.702;2023-07-31T01:54:02;10.43;;;5.63;;
9563;SDS011;4820;50.870;4.702;2023-07-31T01:56:28;13.93;;;5.25;;
9563;SDS011;4820;50.870;4.702;2023-07-31T01:58:53;10.27;;;5.03;;
9563;SDS011;4820;50.870;4.702;2023-07-31T02:01:19;10.70;;;4.78;;
9563;SDS011;4820;50.870;4.702;2023-07-31T02:03:45;9.40;;;4.65;;
9563;SDS011;4820;50.870;4.702;2023-07-31T02:06:10;9.10;;;5.30;;
9563;SDS011;4820;50.870;4.702;2023-07-31T02:08:36;9.88;;;4.82;;
9563;SDS011;4820;50.870;4.702;2023-07-31T02:11:02;11.77;;;5.75;;
9563;SDS011;4820;50.870;4.702;2023-07-31T02:13:28;13.05;;;5.72;;
9563;SDS011;4820;50.870;4.702;2023-07-31T02:15:54;9.43;;;5.22;;
9563;SDS011;4820;50.870;4.702;2023-07-31T02:18:19;10.18;;;5.05;;
9563;SDS011;4820;50.870;4.702;2023-07-31T02:20:49;11.77;;;5.53;;
9563;SDS011;4820;50.870;4.702;2023-07-31T02:23:16;10.68;;;5.30;;
9563;SDS011;4820;50.870;4.702;2023-07-31T02:25:43;8.98;;;5.15;;
9563;SDS011;4820;50.870;4.702;2023-07-31T02:28:08;10.55;;;5.82;;
9563;SDS011;4820;50.870;4.702;2023-07-31T02:30:34;9.57;;;5.13;;
9563;SDS011;4820;50.870;4.702;2023-07-31T02:33:00;10.00;;;5.38;;
9563;SDS011;4820;50.870;4.702;2023-07-31T02:35:25;7.30;;;4.95;;
9563;SDS011;4820;50.870;4.702;2023-07-31T02:37:51;8.50;;;4.78;;
9563;SDS011;4820;50.870;4.702;2023-07-31T02:40:17;8.32;;;5.10;;
9563;SDS011;4820;50.870;4.702;2023-07-31T02:42:42;9.75;;;5.20;;
9563;SDS011;4820;50.870;4.702;2023-07-31T02:45:08;9.18;;;5.10;;
9563;SDS011;4820;50.870;4.702;2023-07-31T02:47:34;10.35;;;5.32;;
9563;SDS011;4820;50.870;4.702;2023-07-31T02:50:00;7.82;;;5.30;;
9563;SDS011;4820;50.870;4.702;2023-07-31T02:52:27;9.20;;;5.13;;
9563;SDS011;4820;50.870;4.702;2023-07-31T02:54:53;9.95;;;5.35;;
9563;SDS011;4820;50.870;4.702;2023-07-31T02:57:19;10.13;;;4.53;;
9563;SDS011;4820;50.870;4.702;2023-07-31T02:59:45;8.00;;;4.93;;
9563;SDS011;4820;50.870;4.702;2023-07-31T03:02:12;9.98;;;5.05;;
9563;SDS011;4820;50.870;4.702;2023-07-31T03:04:38;8.80;;;4.95;;
9563;SDS011;4820;50.870;4.702;2023-07-31T03:07:04;8.30;;;4.78;;
9563;SDS011;4820;50.870;4.702;2023-07-31T03:09:30;8.63;;;4.72;;
9563;SDS011;4820;50.870;4.702;2023-07-31T03:11:57;12.43;;;5.43;;
9563;SDS011;4820;50.870;4.702;2023-07-31T03:14:23;7.55;;;5.22;;
9563;SDS011;4820;50.870;4.702;2023-07-31T03:16:51;8.15;;;4.82;;
9563;SDS011;4820;50.870;4.702;2023-07-31T03:19:17;7.30;;;4.47;;
9563;SDS011;4820;50.870;4.702;2023-07-31T03:21:43;9.32;;;4.60;;
9563;SDS011;4820;50.870;4.702;2023-07-31T03:24:09;6.90;;;4.70;;
9563;SDS011;4820;50.870;4.702;2023-07-31T03:26:34;8.80;;;4.70;;
9563;SDS011;4820;50.870;4.702;2023-07-31T03:29:01;7.88;;;4.38;;
9563;SDS011;4820;50.870;4.702;2023-07-31T03:31:28;8.57;;;4.80;;
9563;SDS011;4820;50.870;4.702;2023-07-31T03:33:54;6.82;;;4.40;;
9563;SDS011;4820;50.870;4.702;2023-07-31T03:36:19;6.65;;;4.40;;
9563;SDS011;4820;50.870;4.702;2023-07-31T03:38:46;6.07;;;4.18;;
9563;SDS011;4820;50.870;4.702;2023-07-31T03:41:11;8.05;;;4.43;;
9563;SDS011;4820;50.870;4.702;2023-07-31T03:43:37;8.57;;;4.25;;
9563;SDS011;4820;50.870;4.702;2023-07-31T03:46:03;7.40;;;4.47;;
9563;SDS011;4820;50.870;4.702;2023-07-31T03:48:29;8.20;;;4.43;;
9563;SDS011;4820;50.870;4.702;2023-07-31T03:50:54;9.55;;;4.55;;
9563;SDS011;4820;50.870;4.702;2023-07-31T03:53:20;6.20;;;4.25;;
9563;SDS011;4820;50.870;4.702;2023-07-31T03:55:46;5.82;;;4.43;;
9563;SDS011;4820;50.870;4.702;2023-07-31T03:58:13;5.82;;;4.43;;
9563;SDS011;4820;50.870;4.702;2023-07-31T04:00:39;10.70;;;4.65;;
9563;SDS011;4820;50.870;4.702;2023-07-31T04:03:05;7.30;;;4.53;;
9563;SDS011;4820;50.870;4.702;2023-07-31T04:05:31;9.13;;;4.75;;
9563;SDS011;4820;50.870;4.702;2023-07-31T04:07:58;8.68;;;4.20;;
9563;SDS011;4820;50.870;4.702;2023-07-31T04:10:24;6.38;;;3.83;;
9563;SDS011;4820;50.870;4.702;2023-07-31T04:12:49;8.70;;;4.13;;
9563;SDS011;4820;50.870;4.702;2023-07-31T04:15:15;7.85;;;4.15;;
9563;SDS011;4820;50.870;4.702;2023-07-31T04:17:41;7.68;;;5.13;;
9563;SDS011;4820;50.870;4.702;2023-07-31T04:20:07;7.28;;;4.10;;
9563;SDS011;4820;50.870;4.702;2023-07-31T04:22:33;6.80;;;4.45;;
9563;SDS011;4820;50.870;4.702;2023-07-31T04:24:58;8.00;;;4.63;;
9563;SDS011;4820;50.870;4.702;2023-07-31T04:27:24;7.03;;;4.45;;
9563;SDS011;4820;50.870;4.702;2023-07-31T04:29:50;6.95;;;4.43;;
9563;SDS011;4820;50.870;4.702;2023-07-31T04:32:16;7.93;;;4.30;;
9563;SDS011;4820;50.870;4.702;2023-07-31T04:34:42;7.50;;;4.50;;
9563;SDS011;4820;50.870;4.702;2023-07-31T04:37:08;7.55;;;4.43;;
9563;SDS011;4820;50.870;4.702;2023-07-31T04:39:35;6.72;;;4.72;;
9563;SDS011;4820;50.870;4.702;2023-07-31T04:42:01;8.55;;;4.22;;
9563;SDS011;4820;50.870;4.702;2023-07-31T04:44:27;6.80;;;4.80;;
9563;SDS011;4820;50.870;4.702;2023-07-31T04:46:53;6.35;;;4.47;;
9563;SDS011;4820;50.870;4.702;2023-07-31T04:49:19;5.95;;;4.03;;
9563;SDS011;4820;50.870;4.702;2023-07-31T04:51:44;6.78;;;4.40;;
9563;SDS011;4820;50.870;4.702;2023-07-31T04:54:10;5.30;;;4.22;;
9563;SDS011;4820;50.870;4.702;2023-07-31T04:56:37;8.43;;;4.53;;
9563;SDS011;4820;50.870;4.702;2023-07-31T04:59:03;6.68;;;4.07;;
9563;SDS011;4820;50.870;4.702;2023-07-31T05:01:29;5.72;;;3.97;;
9563;SDS011;4820;50.870;4.702;2023-07-31T05:03:54;6.25;;;4.30;;
9563;SDS011;4820;50.870;4.702;2023-07-31T05:06:20;10.07;;;4.53;;
9563;SDS011;4820;50.870;4.702;2023-07-31T05:08:46;8.60;;;4.20;;
9563;SDS011;4820;50.870;4.702;2023-07-31T05:11:11;8.32;;;4.20;;
9563;SDS011;4820;50.870;4.702;2023-07-31T05:13:37;8.20;;;4.30;;
9563;SDS011;4820;50.870;4.702;2023-07-31T05:16:03;9.40;;;4.47;;
9563;SDS011;4820;50.870;4.702;2023-07-31T05:18:29;6.72;;;4.43;;
9563;SDS011;4820;50.870;4.702;2023-07-31T05:20:55;9.07;;;4.72;;
9563;SDS011;4820;50.870;4.702;2023-07-31T05:23:20;6.90;;;4.47;;
9563;SDS011;4820;50.870;4.702;2023-07-31T05:25:47;6.45;;;4.30;;
9563;SDS011;4820;50.870;4.702;2023-07-31T05:28:13;5.05;;;4.13;;
9563;SDS011;4820;50.870;4.702;2023-07-31T05:30:38;7.32;;;4.50;;
9563;SDS011;4820;50.870;4.702;2023-07-31T05:33:04;5.75;;;4.45;;
9563;SDS011;4820;50.870;4.702;2023-07-31T05:35:30;6.25;;;4.30;;
9563;SDS011;4820;50.870;4.702;2023-07-31T05:37:55;8.68;;;4.78;;
9563;SDS011;4820;50.870;4.702;2023-07-31T05:40:21;6.15;;;4.45;;
9563;SDS011;4820;50.870;4.702;2023-07-31T05:42:47;8.93;;;4.13;;
9563;SDS011;4820;50.870;4.702;2023-07-31T05:45:12;8.20;;;4.45;;
9563;SDS011;4820;50.870;4.702;2023-07-31T05:47:38;8.23;;;4.72;;
9563;SDS011;4820;50.870;4.702;2023-07-31T05:50:04;6.72;;;3.95;;
9563;SDS011;4820;50.870;4.702;2023-07-31T05:52:30;9.35;;;4.10;;
9563;SDS011;4820;50.870;4.702;2023-07-31T05:54:56;6.55;;;4.80;;
9563;SDS011;4820;50.870;4.702;2023-07-31T05:57:22;6.78;;;4.28;;
9563;SDS011;4820;50.870;4.702;2023-07-31T05:59:48;7.65;;;4.50;;
9563;SDS011;4820;50.870;4.702;2023-07-31T06:02:14;9.45;;;4.43;;
9563;SDS011;4820;50.870;4.702;2023-07-31T06:04:39;6.03;;;4.07;;
9563;SDS011;4820;50.870;4.702;2023-07-31T06:07:05;6.55;;;4.35;;
9563;SDS011;4820;50.870;4.702;2023-07-31T06:09:31;5.72;;;4.60;;
9563;SDS011;4820;50.870;4.702;2023-07-31T06:11:56;7.38;;;4.30;;
9563;SDS011;4820;50.870;4.702;2023-07-31T06:14:22;6.18;;;4.35;;
9563;SDS011;4820;50.870;4.702;2023-07-31T06:16:48;7.55;;;4.30;;
9563;SDS011;4820;50.870;4.702;2023-07-31T06:19:13;6.60;;;3.78;;
9563;SDS011;4820;50.870;4.702;2023-07-31T06:21:39;7.43;;;4.18;;
9563;SDS011;4820;50.870;4.702;2023-07-31T06:24:07;8.13;;;4.45;;
9563;SDS011;4820;50.870;4.702;2023-07-31T06:26:33;7.28;;;4.50;;
9563;SDS011;4820;50.870;4.702;2023-07-31T06:28:58;6.68;;;4.10;;
9563;SDS011;4820;50.870;4.702;2023-07-31T06:31:24;7.18;;;3.95;;
9563;SDS011;4820;50.870;4.702;2023-07-31T06:33:50;8.45;;;4.50;;
9563;SDS011;4820;50.870;4.702;2023-07-31T06:36:16;6.80;;;4.20;;
9563;SDS011;4820;50.870;4.702;2023-07-31T06:38:42;7.22;;;4.20;;
9563;SDS011;4820;50.870;4.702;2023-07-31T06:41:09;6.90;;;4.03;;
9563;SDS011;4820;50.870;4.702;2023-07-31T06:43:35;7.53;;;4.03;;
9563;SDS011;4820;50.870;4.702;2023-07-31T06:46:05;8.32;;;3.88;;
9563;SDS011;4820;50.870;4.702;2023-07-31T06:48:32;8.02;;;4.07;;
9563;SDS011;4820;50.870;4.702;2023-07-31T06:50:58;9.13;;;3.80;;
9563;SDS011;4820;50.870;4.702;2023-07-31T06:53:24;5.85;;;3.80;;
9563;SDS011;4820;50.870;4.702;2023-07-31T06:55:49;8.35;;;3.72;;
9563;SDS011;4820;50.870;4.702;2023-07-31T06:58:16;5.28;;;3.80;;
9563;SDS011;4820;50.870;4.702;2023-07-31T07:00:42;6.20;;;4.15;;
9563;SDS011;4820;50.870;4.702;2023-07-31T07:03:09;7.30;;;4.28;;
9563;SDS011;4820;50.870;4.702;2023-07-31T07:05:35;6.43;;;3.67;;
9563;SDS011;4820;50.870;4.702;2023-07-31T07:08:00;5.90;;;3.70;;
9563;SDS011;4820;50.870;4.702;2023-07-31T07:10:26;7.72;;;4.20;;
9563;SDS011;4820;50.870;4.702;2023-07-31T07:12:52;5.75;;;3.90;;
9563;SDS011;4820;50.870;4.702;2023-07-31T07:15:18;7.03;;;4.10;;
9563;SDS011;4820;50.870;4.702;2023-07-31T07:17:44;6.57;;;3.50;;
9563;SDS011;4820;50.870;4.702;2023-07-31T07:20:12;7.18;;;3.67;;
9563;SDS011;4820;50.870;4.702;2023-07-31T07:22:38;7.65;;;3.97;;
9563;SDS011;4820;50.870;4.702;2023-07-31T07:25:04;5.70;;;3.38;;
9563;SDS011;4820;50.870;4.702;2023-07-31T07:27:29;7.10;;;4.13;;
9563;SDS011;4820;50.870;4.702;2023-07-31T07:29:55;6.43;;;3.80;;
9563;SDS011;4820;50.870;4.702;2023-07-31T07:32:21;5.82;;;3.50;;
9563;SDS011;4820;50.870;4.702;2023-07-31T07:34:47;7.10;;;3.70;;
9563;SDS011;4820;50.870;4.702;2023-07-31T07:37:13;5.95;;;3.20;;
9563;SDS011;4820;50.870;4.702;2023-07-31T07:39:39;5.75;;;3.70;;
9563;SDS011;4820;50.870;4.702;2023-07-31T07:42:05;5.22;;;3.25;;
9563;SDS011;4820;50.870;4.702;2023-07-31T07:44:31;5.90;;;3.60;;
9563;SDS011;4820;50.870;4.702;2023-07-31T07:46:57;5.93;;;3.70;;
9563;SDS011;4820;50.870;4.702;2023-07-31T07:49:22;5.05;;;3.25;;
9563;SDS011;4820;50.870;4.702;2023-07-31T07:51:48;5.30;;;3.25;;
9563;SDS011;4820;50.870;4.702;2023-07-31T07:54:14;6.47;;;3.50;;
9563;SDS011;4820;50.870;4.702;2023-07-31T07:56:43;7.63;;;4.10;;
9563;SDS011;4820;50.870;4.702;2023-07-31T07:59:08;6.82;;;3.90;;
9563;SDS011;4820;50.870;4.702;2023-07-31T08:01:34;6.13;;;3.60;;
9563;SDS011;4820;50.870;4.702;2023-07-31T08:04:00;5.72;;;3.40;;
9563;SDS011;4820;50.870;4.702;2023-07-31T08:06:25;6.65;;;3.80;;
9563;SDS011;4820;50.870;4.702;2023-07-31T08:08:51;6.00;;;3.58;;
9563;SDS011;4820;50.870;4.702;2023-07-31T08:11:17;6.40;;;3.47;;
9563;SDS011;4820;50.870;4.702;2023-07-31T08:13:42;8.88;;;3.70;;
9563;SDS011;4820;50.870;4.702;2023-07-31T08:16:08;5.88;;;3.28;;
9563;SDS011;4820;50.870;4.702;2023-07-31T08:18:35;5.32;;;3.47;;
9563;SDS011;4820;50.870;4.702;2023-07-31T08:21:03;4.97;;;3.50;;
9563;SDS011;4820;50.870;4.702;2023-07-31T08:23:29;4.65;;;3.20;;
9563;SDS011;4820;50.870;4.702;2023-07-31T08:25:55;5.35;;;2.95;;
9563;SDS011;4820;50.870;4.702;2023-07-31T08:28:21;5.72;;;3.40;;
9563;SDS011;4820;50.870;4.702;2023-07-31T08:30:46;4.40;;;2.80;;
9563;SDS011;4820;50.870;4.702;2023-07-31T08:33:12;6.03;;;3.10;;
9563;SDS011;4820;50.870;4.702;2023-07-31T08:35:39;4.63;;;3.05;;
9563;SDS011;4820;50.870;4.702;2023-07-31T08:38:04;5.45;;;2.88;;
9563;SDS011;4820;50.870;4.702;2023-07-31T08:40:30;5.50;;;2.97;;
9563;SDS011;4820;50.870;4.702;2023-07-31T08:42:56;4.55;;;3.10;;
9563;SDS011;4820;50.870;4.702;2023-07-31T08:45:24;4.93;;;2.97;;
9563;SDS011;4820;50.870;4.702;2023-07-31T08:47:50;6.03;;;3.38;;
9563;SDS011;4820;50.870;4.702;2023-07-31T08:50:20;7.18;;;3.00;;
9563;SDS011;4820;50.870;4.702;2023-07-31T08:52:47;4.72;;;2.97;;
9563;SDS011;4820;50.870;4.702;2023-07-31T08:55:14;6.25;;;3.20;;
9563;SDS011;4820;50.870;4.702;2023-07-31T08:57:40;4.03;;;2.83;;
9563;SDS011;4820;50.870;4.702;2023-07-31T09:00:08;4.28;;;3.30;;
9563;SDS011;4820;50.870;4.702;2023-07-31T09:02:41;5.80;;;3.03;;
9563;SDS011;4820;50.870;4.702;2023-07-31T09:05:11;6.60;;;3.00;;
9563;SDS011;4820;50.870;4.702;2023-07-31T09:07:37;3.53;;;2.67;;
9563;SDS011;4820;50.870;4.702;2023-07-31T09:10:04;3.70;;;2.53;;
9563;SDS011;4820;50.870;4.702;2023-07-31T09:12:31;4.97;;;3.03;;
9563;SDS011;4820;50.870;4.702;2023-07-31T09:14:57;6.63;;;2.75;;
9563;SDS011;4820;50.870;4.702;2023-07-31T09:17:30;3.97;;;2.90;;
9563;SDS011;4820;50.870;4.702;2023-07-31T09:19:56;4.68;;;3.05;;
9563;SDS011;4820;50.870;4.702;2023-07-31T09:22:33;5.68;;;3.17;;
9563;SDS011;4820;50.870;4.702;2023-07-31T09:27:52;6.93;;;3.20;;
9563;SDS011;4820;50.870;4.702;2023-07-31T09:30:19;5.85;;;3.25;;
9563;SDS011;4820;50.870;4.702;2023-07-31T09:32:45;5.30;;;3.03;;
9563;SDS011;4820;50.870;4.702;2023-07-31T09:35:34;5.20;;;3.28;;
9563;SDS011;4820;50.870;4.702;2023-07-31T09:38:08;3.88;;;2.95;;
9563;SDS011;4820;50.870;4.702;2023-07-31T09:40:36;4.55;;;3.60;;
9563;SDS011;4820;50.870;4.702;2023-07-31T09:43:03;5.75;;;3.15;;
9563;SDS011;4820;50.870;4.702;2023-07-31T09:45:34;5.07;;;3.28;;
9563;SDS011;4820;50.870;4.702;2023-07-31T09:48:06;5.53;;;3.15;;
9563;SDS011;4820;50.870;4.702;2023-07-31T09:50:43;6.72;;;3.78;;
9563;SDS011;4820;50.870;4.702;2023-07-31T09:53:11;6.03;;;3.63;;
9563;SDS011;4820;50.870;4.702;2023-07-31T09:55:38;4.55;;;3.10;;
9563;SDS011;4820;50.870;4.702;2023-07-31T09:58:06;6.15;;;3.60;;
9563;SDS011;4820;50.870;4.702;2023-07-31T10:00:33;5.50;;;3.70;;
9563;SDS011;4820;50.870;4.702;2023-07-31T10:03:01;7.07;;;3.60;;
9563;SDS011;4820;50.870;4.702;2023-07-31T10:05:35;5.90;;;3.78;;
9563;SDS011;4820;50.870;4.702;2023-07-31T10:08:03;5.13;;;3.70;;
9563;SDS011;4820;50.870;4.702;2023-07-31T10:10:31;6.28;;;4.20;;
9563;SDS011;4820;50.870;4.702;2023-07-31T10:12:59;6.05;;;4.18;;
9563;SDS011;4820;50.870;4.702;2023-07-31T10:15:26;8.27;;;4.70;;
9563;SDS011;4820;50.870;4.702;2023-07-31T10:17:53;7.55;;;4.75;;
9563;SDS011;4820;50.870;4.702;2023-07-31T10:20:20;7.18;;;4.40;;
9563;SDS011;4820;50.870;4.702;2023-07-31T10:22:46;6.70;;;4.70;;
9563;SDS011;4820;50.870;4.702;2023-07-31T10:25:15;8.82;;;4.43;;
9563;SDS011;4820;50.870;4.702;2023-07-31T10:27:41;7.60;;;4.68;;
9563;SDS011;4820;50.870;4.702;2023-07-31T10:30:08;7.10;;;4.85;;
9563;SDS011;4820;50.870;4.702;2023-07-31T10:32:37;8.23;;;4.95;;
9563;SDS011;4820;50.870;4.702;2023-07-31T10:35:05;6.53;;;4.47;;
9563;SDS011;4820;50.870;4.702;2023-07-31T10:40:03;7.15;;;4.68;;
9563;SDS011;4820;50.870;4.702;2023-07-31T10:42:31;7.60;;;4.55;;
9563;SDS011;4820;50.870;4.702;2023-07-31T10:45:00;7.75;;;4.50;;
9563;SDS011;4820;50.870;4.702;2023-07-31T10:47:28;7.95;;;4.32;;
9563;SDS011;4820;50.870;4.702;2023-07-31T10:50:10;6.85;;;4.95;;
9563;SDS011;4820;50.870;4.702;2023-07-31T10:52:50;7.78;;;4.43;;
9563;SDS011;4820;50.870;4.702;2023-07-31T10:57:55;11.65;;;5.20;;
9563;SDS011;4820;50.870;4.702;2023-07-31T11:03:00;12.98;;;5.15;;
9563;SDS011;4820;50.870;4.702;2023-07-31T11:10:47;7.82;;;4.60;;
9563;SDS011;4820;50.870;4.702;2023-07-31T11:13:14;7.97;;;4.72;;
9563;SDS011;4820;50.870;4.702;2023-07-31T11:15:40;8.27;;;4.80;;
9563;SDS011;4820;50.870;4.702;2023-07-31T11:18:06;7.00;;;4.60;;
9563;SDS011;4820;50.870;4.702;2023-07-31T11:20:33;6.53;;;4.85;;
9563;SDS011;4820;50.870;4.702;2023-07-31T11:23:05;8.70;;;4.60;;
9563;SDS011;4820;50.870;4.702;2023-07-31T11:25:32;7.35;;;4.47;;
9563;SDS011;4820;50.870;4.702;2023-07-31T11:28:02;5.63;;;4.47;;
9563;SDS011;4820;50.870;4.702;2023-07-31T11:30:29;7.03;;;4.53;;
9563;SDS011;4820;50.870;4.702;2023-07-31T11:32:55;7.22;;;4.35;;
9563;SDS011;4820;50.870;4.702;2023-07-31T11:35:21;5.43;;;4.43;;
9563;SDS011;4820;50.870;4.702;2023-07-31T11:37:47;7.65;;;4.35;;
9563;SDS011;4820;50.870;4.702;2023-07-31T11:40:13;7.40;;;4.70;;
9563;SDS011;4820;50.870;4.702;2023-07-31T11:42:40;8.90;;;4.95;;
9563;SDS011;4820;50.870;4.702;2023-07-31T11:45:06;8.45;;;4.50;;
9563;SDS011;4820;50.870;4.702;2023-07-31T11:47:35;7.05;;;4.25;;
9563;SDS011;4820;50.870;4.702;2023-07-31T11:50:02;6.80;;;4.50;;
9563;SDS011;4820;50.870;4.702;2023-07-31T11:52:29;7.65;;;4.30;;
9563;SDS011;4820;50.870;4.702;2023-07-31T11:55:00;8.95;;;4.95;;
9563;SDS011;4820;50.870;4.702;2023-07-31T11:57:27;7.38;;;4.43;;
9563;SDS011;4820;50.870;4.702;2023-07-31T11:59:53;9.57;;;4.32;;
9563;SDS011;4820;50.870;4.702;2023-07-31T12:02:20;7.78;;;4.72;;
9563;SDS011;4820;50.870;4.702;2023-07-31T12:04:46;8.18;;;4.63;;
9563;SDS011;4820;50.870;4.702;2023-07-31T12:07:12;8.77;;;4.35;;
9563;SDS011;4820;50.870;4.702;2023-07-31T12:09:38;8.55;;;4.60;;
9563;SDS011;4820;50.870;4.702;2023-07-31T12:12:19;6.55;;;4.30;;
9563;SDS011;4820;50.870;4.702;2023-07-31T12:14:48;6.45;;;3.90;;
9563;SDS011;4820;50.870;4.702;2023-07-31T12:17:15;8.32;;;4.45;;
9563;SDS011;4820;50.870;4.702;2023-07-31T12:19:42;6.93;;;4.40;;
9563;SDS011;4820;50.870;4.702;2023-07-31T12:22:14;10.10;;;4.80;;
9563;SDS011;4820;50.870;4.702;2023-07-31T12:24:44;7.10;;;4.05;;
9563;SDS011;4820;50.870;4.702;2023-07-31T12:27:13;5.32;;;4.30;;
9563;SDS011;4820;50.870;4.702;2023-07-31T12:29:43;6.65;;;4.35;;
9563;SDS011;4820;50.870;4.702;2023-07-31T12:32:22;7.68;;;4.10;;
9563;SDS011;4820;50.870;4.702;2023-07-31T12:34:53;6.45;;;4.50;;
9563;SDS011;4820;50.870;4.702;2023-07-31T12:37:20;7.35;;;4.03;;
9563;SDS011;4820;50.870;4.702;2023-07-31T12:39:47;7.25;;;4.47;;
9563;SDS011;4820;50.870;4.702;2023-07-31T12:42:13;7.93;;;4.55;;
9563;SDS011;4820;50.870;4.702;2023-07-31T12:44:39;7.25;;;5.05;;
9563;SDS011;4820;50.870;4.702;2023-07-31T12:47:04;8.18;;;4.65;;
9563;SDS011;4820;50.870;4.702;2023-07-31T12:49:30;7.22;;;4.75;;
9563;SDS011;4820;50.870;4.702;2023-07-31T12:51:56;8.57;;;4.75;;
9563;SDS011;4820;50.870;4.702;2023-07-31T12:54:22;8.27;;;5.10;;
9563;SDS011;4820;50.870;4.702;2023-07-31T12:56:48;7.72;;;4.60;;
9563;SDS011;4820;50.870;4.702;2023-07-31T12:59:13;7.68;;;4.85;;
9563;SDS011;4820;50.870;4.702;2023-07-31T13:01:39;9.68;;;4.72;;
9563;SDS011;4820;50.870;4.702;2023-07-31T13:04:05;6.90;;;5.22;;
9563;SDS011;4820;50.870;4.702;2023-07-31T13:06:30;6.45;;;4.60;;
9563;SDS011;4820;50.870;4.702;2023-07-31T13:08:56;10.20;;;5.30;;
9563;SDS011;4820;50.870;4.702;2023-07-31T13:11:22;6.15;;;4.47;;
9563;SDS011;4820;50.870;4.702;2023-07-31T13:13:47;10.05;;;5.43;;
9563;SDS011;4820;50.870;4.702;2023-07-31T13:16:13;8.43;;;4.97;;
9563;SDS011;4820;50.870;4.702;2023-07-31T13:18:38;9.07;;;4.75;;
9563;SDS011;4820;50.870;4.702;2023-07-31T13:21:04;8.25;;;4.60;;
9563;SDS011;4820;50.870;4.702;2023-07-31T13:23:30;7.45;;;4.90;;
9563;SDS011;4820;50.870;4.702;2023-07-31T13:25:55;7.60;;;4.97;;
9563;SDS011;4820;50.870;4.702;2023-07-31T13:28:21;6.85;;;4.55;;
9563;SDS011;4820;50.870;4.702;2023-07-31T13:30:47;7.43;;;4.43;;
9563;SDS011;4820;50.870;4.702;2023-07-31T13:33:12;7.32;;;4.20;;
9563;SDS011;4820;50.870;4.702;2023-07-31T13:35:38;6.28;;;4.05;;
9563;SDS011;4820;50.870;4.702;2023-07-31T13:38:04;5.50;;;3.97;;
9563;SDS011;4820;50.870;4.702;2023-07-31T13:40:30;9.23;;;4.00;;
9563;SDS011;4820;50.870;4.702;2023-07-31T13:42:57;8.60;;;4.72;;
9563;SDS011;4820;50.870;4.702;2023-07-31T13:45:23;8.02;;;4.82;;
9563;SDS011;4820;50.870;4.702;2023-07-31T13:47:49;6.78;;;3.97;;
9563;SDS011;4820;50.870;4.702;2023-07-31T13:50:16;4.80;;;3.25;;
9563;SDS011;4820;50.870;4.702;2023-07-31T13:52:44;6.85;;;3.45;;
9563;SDS011;4820;50.870;4.702;2023-07-31T13:55:09;4.53;;;3.35;;
9563;SDS011;4820;50.870;4.702;2023-07-31T13:57:35;5.80;;;3.42;;
9563;SDS011;4820;50.870;4.702;2023-07-31T14:00:01;5.47;;;3.25;;
9563;SDS011;4820;50.870;4.702;2023-07-31T14:02:27;5.40;;;3.50;;
9563;SDS011;4820;50.870;4.702;2023-07-31T14:04:53;10.27;;;4.10;;
9563;SDS011;4820;50.870;4.702;2023-07-31T14:07:18;5.72;;;3.72;;
9563;SDS011;4820;50.870;4.702;2023-07-31T14:09:44;4.13;;;3.00;;
9563;SDS011;4820;50.870;4.702;2023-07-31T14:12:10;3.90;;;2.90;;
9563;SDS011;4820;50.870;4.702;2023-07-31T14:14:36;4.97;;;3.30;;
9563;SDS011;4820;50.870;4.702;2023-07-31T14:17:02;4.82;;;3.05;;
9563;SDS011;4820;50.870;4.702;2023-07-31T14:19:27;3.92;;;3.00;;
9563;SDS011;4820;50.870;4.702;2023-07-31T14:21:53;4.20;;;3.35;;
9563;SDS011;4820;50.870;4.702;2023-07-31T14:24:20;5.25;;;3.05;;
9563;SDS011;4820;50.870;4.702;2023-07-31T14:26:45;5.15;;;3.58;;
9563;SDS011;4820;50.870;4.702;2023-07-31T14:29:11;4.55;;;3.17;;
9563;SDS011;4820;50.870;4.702;2023-07-31T14:31:37;4.60;;;3.60;;
9563;SDS011;4820;50.870;4.702;2023-07-31T14:34:02;3.78;;;2.80;;
9563;SDS011;4820;50.870;4.702;2023-07-31T14:36:28;5.15;;;3.30;;
9563;SDS011;4820;50.870;4.702;2023-07-31T14:38:54;4.05;;;2.92;;
9563;SDS011;4820;50.870;4.702;2023-07-31T14:41:19;4.40;;;3.30;;
9563;SDS011;4820;50.870;4.702;2023-07-31T14:43:46;6.03;;;3.40;;
9563;SDS011;4820;50.870;4.702;2023-07-31T14:46:11;5.05;;;3.58;;
9563;SDS011;4820;50.870;4.702;2023-07-31T14:48:37;4.97;;;2.95;;
9563;SDS011;4820;50.870;4.702;2023-07-31T14:51:03;3.72;;;2.88;;
9563;SDS011;4820;50.870;4.702;2023-07-31T14:53:29;4.97;;;3.35;;
9563;SDS011;4820;50.870;4.702;2023-07-31T14:55:54;4.15;;;2.97;;
9563;SDS011;4820;50.870;4.702;2023-07-31T14:58:20;3.25;;;2.90;;
9563;SDS011;4820;50.870;4.702;2023-07-31T15:00:47;3.53;;;2.75;;
9563;SDS011;4820;50.870;4.702;2023-07-31T15:03:13;3.83;;;2.70;;
9563;SDS011;4820;50.870;4.702;2023-07-31T15:05:39;4.32;;;2.60;;
9563;SDS011;4820;50.870;4.702;2023-07-31T15:08:04;4.05;;;2.75;;
9563;SDS011;4820;50.870;4.702;2023-07-31T15:10:30;3.05;;;2.58;;
9563;SDS011;4820;50.870;4.702;2023-07-31T15:12:56;2.45;;;2.20;;
9563;SDS011;4820;50.870;4.702;2023-07-31T15:15:22;3.88;;;2.47;;
9563;SDS011;4820;50.870;4.702;2023-07-31T15:17:48;3.42;;;2.70;;
9563;SDS011;4820;50.870;4.702;2023-07-31T15:20:14;3.03;;;2.53;;
9563;SDS011;4820;50.870;4.702;2023-07-31T15:22:40;2.65;;;2.40;;
9563;SDS011;4820;50.870;4.702;2023-07-31T15:25:06;3.13;;;2.40;;
9563;SDS011;4820;50.870;4.702;2023-07-31T15:27:32;2.80;;;2.40;;
9563;SDS011;4820;50.870;4.702;2023-07-31T15:29:57;2.60;;;2.13;;
9563;SDS011;4820;50.870;4.702;2023-07-31T15:32:23;2.13;;;1.92;;